Time;durP1;ratioP1;P1;durP2;ratioP2;P2;SDS_P1;SDS_P2;PMS_P1;PMS_P2;Temp;Humidity;BMP_temperature;BMP_pressure;BME280_temperature;BME280_humidity;BME280_pressure;Samples;Min_cycle;Max_cycle;Signal;HPM_P1;HPM_P2
2021/01/10 00:00:44;;;;;;;69.35;21.38;;;;;;;;;;4916627;29;20059;-82
2021/01/10 00:03:10;;;;;;;58.40;21.65;;;;;;;;;;4917858;29;20490;-82
2021/01/10 00:05:39;;;;;;;54.63;20.30;;;1.00;99.90;;;;;;4919948;29;20048;-82
2021/01/10 00:08:06;;;;;;;67.05;22.83;;;;;;;;;;4918263;29;20165;-82
2021/01/10 00:10:33;;;;;;;57.40;20.90;;;;;;;;;;4918256;29;20036;-82
2021/01/10 00:13:01;;;;;;;63.40;22.87;;;1.00;99.90;;;;;;4919013;29;20135;-82
2021/01/10 00:15:29;;;;;;;66.15;23.17;;;1.00;99.90;;;;;;4909198;29;20047;-82
2021/01/10 00:17:56;;;;;;;67.05;23.23;;;;;;;;;;4940047;29;20130;-82
2021/01/10 00:20:22;;;;;;;58.80;21.92;;;;;;;;;;4939433;29;20043;-82
2021/01/10 00:22:52;;;;;;;51.92;20.40;;;1.00;99.90;;;;;;4941417;29;20048;-82
2021/01/10 00:25:19;;;;;;;61.92;22.38;;;;;;;;;;4939858;29;20047;-82
2021/01/10 00:27:45;;;;;;;62.33;20.13;;;;;;;;;;4939861;29;20383;-82
2021/01/10 00:30:16;;;;;;;70.97;23.10;;;1.20;99.90;;;;;;4940769;29;20036;-82
2021/01/10 00:32:46;;;;;;;65.43;23.40;;;1.30;99.90;;;;;;4941832;29;20447;-82
2021/01/10 00:35:13;;;;;;;65.53;23.85;;;;;;;;;;4941579;29;20118;-82
2021/01/10 00:37:45;;;;;;;66.17;22.97;;;1.40;99.90;;;;;;4940523;29;20102;-82
2021/01/10 00:40:11;;;;;;;52.75;20.17;;;;;;;;;;4939842;29;20048;-82
2021/01/10 00:42:39;;;;;;;61.28;23.40;;;1.30;99.90;;;;;;4939505;29;20040;-81
2021/01/10 00:45:06;;;;;;;55.33;21.67;;;1.30;99.90;;;;;;4939096;29;20172;-82
2021/01/10 00:47:33;;;;;;;43.70;19.23;;;1.40;99.90;;;;;;4938839;29;20040;-82
2021/01/10 00:50:00;;;;;;;47.55;19.33;;;;;;;;;;4941980;29;20134;-82
2021/01/10 00:52:29;;;;;;;44.47;18.67;;;1.40;99.90;;;;;;4937310;29;20047;-82
2021/01/10 00:54:59;;;;;;;41.90;17.25;;;1.40;99.90;;;;;;4926859;29;20126;-82
2021/01/10 00:57:27;;;;;;;45.25;18.88;;;1.50;99.90;;;;;;4939288;29;20043;-81
2021/01/10 00:59:53;;;;;;;54.80;18.83;;;1.50;99.90;;;;;;4928798;29;20043;-82
2021/01/10 01:02:20;;;;;;;50.53;18.85;;;;;;;;;;4922087;29;20044;-82
2021/01/10 01:04:49;;;;;;;44.85;17.15;;;1.60;99.90;;;;;;4927238;29;20052;-82
2021/01/10 01:07:15;;;;;;;41.67;17.42;;;;;;;;;;4923474;29;20118;-82
2021/01/10 01:09:41;;;;;;;42.65;16.70;;;;;;;;;;4940192;29;20042;-81
2021/01/10 01:12:08;;;;;;;37.25;16.63;;;1.60;99.90;;;;;;4940351;29;20047;-80
2021/01/10 01:14:34;;;;;;;45.58;17.90;;;;;;;;;;4938705;29;20044;-82
2021/01/10 01:17:01;;;;;;;47.88;17.77;;;;;;;;;;4938852;29;20131;-82
2021/01/10 01:19:27;;;;;;;43.00;18.03;;;;;;;;;;4938535;29;20489;-82
2021/01/10 01:22:00;;;;;;;39.70;16.75;;;1.70;99.90;;;;;;4940130;29;20071;-82
2021/01/10 01:24:27;;;;;;;40.15;16.88;;;;;;;;;;4940603;29;20090;-82
2021/01/10 01:26:54;;;;;;;36.28;15.50;;;1.60;99.90;;;;;;4939020;29;20431;-81
2021/01/10 01:29:20;;;;;;;43.53;16.92;;;;;;;;;;4939534;29;20050;-82
2021/01/10 01:31:46;;;;;;;38.50;16.67;;;1.40;99.90;;;;;;4940019;29;20502;-81
2021/01/10 01:34:12;;;;;;;36.60;16.02;;;;;;;;;;4938092;29;20047;-82
2021/01/10 01:36:38;;;;;;;40.28;17.42;;;;;;;;;;4937515;29;20105;-82
2021/01/10 01:39:05;;;;;;;53.15;19.52;;;;;;;;;;4939446;29;20063;-82
2021/01/10 01:41:35;;;;;;;55.83;20.27;;;1.40;99.90;;;;;;4939998;29;20046;-82
2021/01/10 01:44:01;;;;;;;;;;;1.50;99.90;;;;;;4940147;29;20516;-82
2021/01/10 01:46:32;;;;;;;51.53;18.48;;;1.40;99.90;;;;;;4938274;29;19919;-82
2021/01/10 01:49:02;;;;;;;49.28;19.73;;;1.40;99.90;;;;;;4937093;29;20044;-82
2021/01/10 01:51:28;;;;;;;51.72;19.35;;;1.40;99.90;;;;;;4938739;29;20039;-82
2021/01/10 01:53:55;;;;;;;63.90;22.38;;;;;;;;;;4937727;29;20043;-82
2021/01/10 01:56:22;;;;;;;50.90;20.95;;;1.50;99.90;;;;;;4937996;29;20071;-82
2021/01/10 01:58:56;;;;;;;55.20;19.77;;;0.90;99.90;;;;;;4937558;29;20418;-82
2021/01/10 02:01:24;;;;;;;58.97;21.95;;;;;;;;;;4937634;29;20047;-81
2021/01/10 02:03:50;;;;;;;57.95;20.60;;;;;;;;;;4938024;29;20465;-82
2021/01/10 02:06:21;;;;;;;65.22;24.08;;;1.40;99.90;;;;;;4938117;29;20394;-82
2021/01/10 02:08:53;;;;;;;60.88;24.05;;;1.30;99.90;;;;;;4937149;29;20050;-82
2021/01/10 02:11:21;;;;;;;55.95;21.95;;;1.30;99.90;;;;;;4936919;29;20040;-82
2021/01/10 02:13:48;;;;;;;61.38;23.00;;;1.40;99.90;;;;;;4937189;29;20043;-82
2021/01/10 02:16:17;;;;;;;55.25;22.50;;;1.50;99.90;;;;;;4940262;29;20066;-82
2021/01/10 02:18:46;;;;;;;65.10;23.15;;;1.60;99.90;;;;;;4919791;29;20056;-82
2021/01/10 02:21:17;;;;;;;63.92;23.95;;;1.60;99.90;;;;;;4921616;29;20039;-82
2021/01/10 02:23:44;;;;;;;69.65;24.02;;;;;;;;;;4937373;29;20043;-82
2021/01/10 02:26:11;;;;;;;61.25;21.60;;;1.80;99.90;;;;;;4936850;29;20619;-82
2021/01/10 02:28:40;;;;;;;54.47;20.67;;;1.80;99.90;;;;;;4921031;29;20051;-82
2021/01/10 02:31:07;;;;;;;49.88;20.02;;;1.80;99.90;;;;;;4938729;29;20091;-82
2021/01/10 02:33:42;;;;;;;55.33;19.88;;;2.20;99.90;;;;;;4921695;29;20063;-82
2021/01/10 02:36:14;;;;;;;45.92;17.88;;;1.90;99.90;;;;;;4936654;29;20049;-82
2021/01/10 02:38:46;;;;;;;54.70;20.77;;;1.90;99.90;;;;;;4921203;29;20474;-82
2021/01/10 02:41:23;;;;;;;51.33;19.48;;;1.80;99.90;;;;;;4937682;29;20137;-82
2021/01/10 02:44:02;;;;;;;52.38;19.27;;;1.90;99.90;;;;;;4938450;29;20040;-82
2021/01/10 02:46:30;;;;;;;50.83;18.70;;;2.80;99.90;;;;;;4921338;29;20098;-82
2021/01/10 02:48:56;;;;;;;43.00;19.03;;;;;;;;;;4937953;29;20523;-82
2021/01/10 02:51:23;;;;;;;36.95;16.92;;;;;;;;;;4938766;29;20040;-82
2021/01/10 02:53:51;;;;;;;42.72;17.85;;;1.80;99.90;;;;;;4938577;29;20047;-82
2021/01/10 02:56:19;;;;;;;44.75;17.98;;;1.70;99.90;;;;;;4936849;29;20043;-82
2021/01/10 02:58:48;;;;;;;39.80;17.20;;;;;;;;;;4936540;29;20043;-82
2021/01/10 03:01:16;;;;;;;45.60;17.65;;;1.60;99.90;;;;;;4932710;29;20071;-82
2021/01/10 03:03:55;;;;;;;40.58;17.85;;;1.60;99.90;;;;;;4917168;29;20533;-82
2021/01/10 03:06:27;;;;;;;39.38;16.48;;;1.60;99.90;;;;;;4901200;29;20040;-82
2021/01/10 03:08:54;;;;;;;45.13;16.10;;;1.70;99.90;;;;;;4901734;29;20174;-83
2021/01/10 03:11:50;;;;;;;42.55;16.35;;;1.50;99.90;;;;;;4916828;29;20056;-83
2021/01/10 03:14:21;;;;;;;37.17;15.65;;;1.60;99.90;;;;;;4913085;29;20099;-83
2021/01/10 03:16:57;;;;;;;44.65;16.83;;;1.70;99.90;;;;;;4914790;29;20144;-83
2021/01/10 03:19:23;;;;;;;48.10;18.47;;;;;;;;;;4920277;29;20046;-83
2021/01/10 03:21:54;;;;;;;44.15;16.88;;;1.50;99.90;;;;;;4936584;29;20083;-82
2021/01/10 03:24:31;;;;;;;40.95;17.80;;;1.30;99.90;;;;;;4933296;29;20509;-83
2021/01/10 03:26:57;;;;;;;48.60;17.95;;;;;;;;;;4920868;29;20047;-83
2021/01/10 03:29:43;;;;;;;47.40;17.50;;;1.60;99.90;;;;;;4937400;29;20047;-83
2021/01/10 03:32:14;;;;;;;41.25;17.88;;;;;;;;;;4919129;29;20506;-82
2021/01/10 03:34:40;;;;;;;43.05;18.67;;;;;;;;;;4917648;29;20478;-82
2021/01/10 03:37:15;;;;;;;44.30;18.52;;;0.70;99.90;;;;;;4917415;29;20122;-82
2021/01/10 03:39:48;;;;;;;43.08;17.85;;;1.10;99.90;;;;;;4919182;29;20096;-82
2021/01/10 03:42:32;;;;;;;47.72;18.23;;;1.30;99.90;;;;;;4914272;29;20068;-83
2021/01/10 03:45:32;;;;;;;55.38;20.25;;;1.20;99.90;;;;;;4913407;29;20404;-82
2021/01/10 03:48:42;;;;;;;53.93;19.47;;;1.20;99.90;;;;;;4938843;29;20052;-82
2021/01/10 03:51:33;;;;;;;42.75;17.50;;;1.40;99.90;;;;;;4908080;29;20401;-83
2021/01/10 03:54:31;;;;;;;45.85;18.58;;;1.60;99.90;;;;;;4894441;29;20051;-83
2021/01/10 03:58:13;;;;;;;42.30;17.33;;;1.70;99.90;;;;;;4926757;29;20056;-83
2021/01/10 04:01:24;;;;;;;45.15;17.70;;;1.80;99.90;;;;;;4938561;29;20056;-83
2021/01/10 04:04:37;;;;;;;43.95;18.42;;;1.80;99.90;;;;;;4903055;29;20088;-82
2021/01/10 04:08:24;;;;;;;44.28;18.05;;;1.70;99.90;;;;;;4902667;29;20064;-83
2021/01/10 04:11:45;;;;;;;44.88;18.77;;;1.70;99.90;;;;;;4872257;29;20534;-82
2021/01/10 04:15:20;;;;;;;49.33;16.80;;;1.70;99.90;;;;;;4896276;29;20048;-83
2021/01/10 04:18:49;;;;;;;45.10;17.70;;;1.80;99.90;;;;;;4829581;29;20432;-82
2021/01/10 04:32:28;;;;;;;47.53;18.83;;;2.00;99.90;;;;;;4758829;30;20108;-82
2021/01/10 04:36:10;;;;;;;52.63;18.65;;;2.10;99.90;;;;;;4791347;29;20043;-82
2021/01/10 04:39:42;;;;;;;45.03;17.30;;;2.10;99.90;;;;;;4795064;30;20048;-82
2021/01/10 04:43:06;;;;;;;44.88;17.08;;;2.20;99.90;;;;;;4744732;30;20086;-82
2021/01/10 05:13:42;;;;;;;44.17;18.48;;;1.70;99.90;;;;;;4810242;29;20074;-82
